createdAt,value
2023-03-21T00:00:13.177Z,8.07
2023-03-21T00:01:13.186Z,8.12
2023-03-21T00:02:13.252Z,8.07
2023-03-21T00:03:13.199Z,8.10
2023-03-21T00:04:13.255Z,8.08
2023-03-21T00:05:15.685Z,8.07
2023-03-21T00:06:13.240Z,8.08
2023-03-21T00:07:13.231Z,8.09
2023-03-21T00:08:13.235Z,8.10
2023-03-21T00:09:13.243Z,8.11
2023-03-21T00:10:16.805Z,8.12
2023-03-21T00:11:13.263Z,8.13
2023-03-21T00:12:13.268Z,8.12
2023-03-21T00:13:13.537Z,8.13
2023-03-21T00:14:13.283Z,8.12
2023-03-21T00:15:13.288Z,8.13
2023-03-21T00:16:18.371Z,8.13
2023-03-21T00:17:13.298Z,8.12
2023-03-21T00:18:13.310Z,8.06
2023-03-21T00:19:13.320Z,8.06
2023-03-21T00:20:13.326Z,8.00
2023-03-21T00:21:39.490Z,8.01
2023-03-21T00:22:13.343Z,8.01
2023-03-21T00:23:13.354Z,7.94
2023-03-21T00:24:13.358Z,7.93
2023-03-21T00:25:13.366Z,7.91
2023-03-21T00:26:13.376Z,7.92
2023-03-21T00:27:39.637Z,7.93
2023-03-21T00:28:13.391Z,7.94
2023-03-21T00:29:13.412Z,7.96
2023-03-21T00:30:13.417Z,7.99
2023-03-21T00:31:13.411Z,7.99
2023-03-21T00:32:13.420Z,8.01
2023-03-21T00:33:22.226Z,7.99
2023-03-21T00:35:51.503Z,8.04
2023-03-21T00:36:13.614Z,8.04
2023-03-21T00:37:13.466Z,8.05
2023-03-21T00:38:13.471Z,8.06
2023-03-21T00:39:13.480Z,8.07
2023-03-21T00:40:25.271Z,8.06
2023-03-21T00:41:23.622Z,8.08
2023-03-21T00:42:13.502Z,8.08
2023-03-21T00:43:13.507Z,8.08
2023-03-21T00:44:13.969Z,8.09
2023-03-21T00:45:13.537Z,8.09
2023-03-21T00:46:13.600Z,8.10
2023-03-21T00:47:13.586Z,8.08
2023-03-21T00:48:13.664Z,8.10
2023-03-21T00:49:13.577Z,8.10
2023-03-21T00:50:13.573Z,8.12
2023-03-21T00:51:13.582Z,8.11
2023-03-21T00:52:22.300Z,8.13
2023-03-21T00:53:13.598Z,8.10
2023-03-21T00:54:13.605Z,8.08
2023-03-21T00:55:13.619Z,8.08
2023-03-21T00:56:13.620Z,8.09
2023-03-21T00:57:13.633Z,8.07
2023-03-21T00:58:13.637Z,8.10
2023-03-21T00:59:13.644Z,8.12
2023-03-21T01:00:13.654Z,8.11
2023-03-21T01:01:13.693Z,8.12
2023-03-21T01:02:13.745Z,8.11
2023-03-21T01:03:23.542Z,8.13
2023-03-21T01:04:13.752Z,8.13
2023-03-21T01:05:13.693Z,8.14
2023-03-21T01:06:13.734Z,8.14
2023-03-21T01:07:13.705Z,8.12
2023-03-21T01:08:23.940Z,8.13
2023-03-21T01:09:13.713Z,8.13
2023-03-21T01:10:13.725Z,8.14
2023-03-21T01:11:13.732Z,8.13
2023-03-21T01:12:13.745Z,8.15
2023-03-21T01:13:13.748Z,8.12
2023-03-21T01:15:13.769Z,8.10
2023-03-21T01:16:13.819Z,8.12
2023-03-21T01:17:13.789Z,8.10
2023-03-21T01:18:13.791Z,8.10
2023-03-21T01:19:22.313Z,8.09
2023-03-21T01:20:13.814Z,8.08
2023-03-21T01:21:13.821Z,8.10
2023-03-21T01:22:13.825Z,8.08
2023-03-21T01:23:13.834Z,8.10
2023-03-21T01:24:13.846Z,8.09
2023-03-21T01:25:22.159Z,8.09
2023-03-21T01:26:13.861Z,8.10
2023-03-21T01:27:13.869Z,8.11
2023-03-21T01:45:14.370Z,8.16
2023-03-21T01:46:14.200Z,8.18
2023-03-21T01:47:14.032Z,8.16
2023-03-21T01:48:14.071Z,8.16
2023-03-21T01:49:14.045Z,8.14
2023-03-21T01:50:14.059Z,8.16
2023-03-21T01:51:14.069Z,8.15
2023-03-21T01:52:21.224Z,8.15
2023-03-21T01:53:14.076Z,8.18
2023-03-21T01:54:14.089Z,8.16
2023-03-21T01:55:14.096Z,8.16
2023-03-21T01:56:14.100Z,8.17
2023-03-21T01:57:14.109Z,8.16
2023-03-21T01:58:14.117Z,8.16
2023-03-21T01:59:14.129Z,8.16
2023-03-21T02:00:14.137Z,8.17
2023-03-21T02:01:14.257Z,8.17
2023-03-21T02:02:14.153Z,8.17
2023-03-21T02:03:21.183Z,8.18
2023-03-21T02:04:14.303Z,8.21
2023-03-21T02:05:14.185Z,8.20
2023-03-21T02:06:14.195Z,8.19
2023-03-21T02:07:14.202Z,8.20
2023-03-21T02:08:14.215Z,8.20
2023-03-21T02:09:14.216Z,8.22
2023-03-21T02:10:14.221Z,8.22
2023-03-21T02:11:14.226Z,8.22
2023-03-21T02:12:14.241Z,8.23
2023-03-21T02:13:14.248Z,8.23
2023-03-21T02:14:17.667Z,8.22
2023-03-21T02:15:14.265Z,8.21
2023-03-21T02:16:14.316Z,8.20
2023-03-21T02:17:14.290Z,8.23
2023-03-21T02:18:14.299Z,8.22
2023-03-21T02:19:17.618Z,8.21
2023-03-21T02:20:14.318Z,8.21
2023-03-21T02:21:14.324Z,8.22
2023-03-21T02:22:14.330Z,8.21
2023-03-21T02:23:14.335Z,8.21
2023-03-21T02:24:14.346Z,8.21
2023-03-21T02:25:21.714Z,8.23
2023-03-21T02:26:14.368Z,8.22
2023-03-21T02:27:14.376Z,8.23
2023-03-21T02:28:14.382Z,8.24
2023-03-21T02:29:15.025Z,8.26
2023-03-21T02:30:20.128Z,8.27
2023-03-21T02:31:14.439Z,8.28
2023-03-21T02:32:22.518Z,8.30
2023-03-21T02:33:14.432Z,8.30
2023-03-21T02:34:14.446Z,8.29
2023-03-21T02:35:14.455Z,8.30
2023-03-21T02:36:14.912Z,8.30
2023-03-21T02:37:14.522Z,8.30
2023-03-21T02:38:14.478Z,8.28
2023-03-21T02:39:14.485Z,8.28
2023-03-21T02:40:14.494Z,8.27
2023-03-21T02:41:18.886Z,8.28
2023-03-21T02:42:14.516Z,8.27
2023-03-21T02:43:22.824Z,8.28
2023-03-21T02:44:14.534Z,8.27
2023-03-21T02:45:14.540Z,8.31
2023-03-21T02:46:14.592Z,8.29
2023-03-21T02:47:14.597Z,8.31
2023-03-21T02:48:26.790Z,8.29
2023-03-21T02:49:14.570Z,8.29
2023-03-21T02:50:14.587Z,8.28
2023-03-21T02:51:14.586Z,8.29
2023-03-21T02:52:23.088Z,8.30
2023-03-21T02:53:14.608Z,8.30
2023-03-21T02:54:30.159Z,8.29
2023-03-21T02:55:14.660Z,8.28
2023-03-21T02:56:14.641Z,8.28
2023-03-21T02:57:14.641Z,8.29
2023-03-21T02:58:14.655Z,8.30
2023-03-21T02:59:14.665Z,8.31
2023-03-21T03:00:16.836Z,8.30
2023-03-21T03:01:14.748Z,8.30
2023-03-21T03:02:14.694Z,8.32
2023-03-21T03:03:24.936Z,8.31
2023-03-21T03:04:14.737Z,8.32
2023-03-21T03:05:20.601Z,8.37
2023-03-21T03:06:14.738Z,8.33
2023-03-21T03:07:14.743Z,8.35
2023-03-21T03:08:14.755Z,8.34
2023-03-21T03:09:14.770Z,8.33
2023-03-21T03:10:14.772Z,8.33
2023-03-21T03:11:14.780Z,8.33
2023-03-21T03:12:14.797Z,8.34
2023-03-21T03:13:22.479Z,8.33
2023-03-21T03:14:39.938Z,8.33
2023-03-21T03:15:14.827Z,8.34
2023-03-21T03:16:14.858Z,8.34
2023-03-21T03:17:14.853Z,8.34
2023-03-21T03:18:14.859Z,8.35
2023-03-21T03:19:14.880Z,8.36
2023-03-21T03:20:17.121Z,8.36
2023-03-21T03:21:14.892Z,8.35
2023-03-21T03:22:14.903Z,8.35
2023-03-21T03:23:14.908Z,8.36
2023-03-21T03:24:14.929Z,8.35
2023-03-21T03:25:22.990Z,8.35
2023-03-21T03:26:14.938Z,8.36
2023-03-21T03:27:14.957Z,8.36
2023-03-21T03:28:14.966Z,8.34
2023-03-21T03:29:14.969Z,8.37
2023-03-21T03:30:14.988Z,8.33
2023-03-21T03:31:15.448Z,8.34
2023-03-21T03:32:14.999Z,8.34
2023-03-21T03:33:15.008Z,8.35
2023-03-21T03:34:15.021Z,8.34
2023-03-21T03:35:15.025Z,8.33
2023-03-21T03:36:28.649Z,8.33
2023-03-21T03:37:15.131Z,8.30
2023-03-21T03:38:15.063Z,8.31
2023-03-21T03:39:15.070Z,8.30
2023-03-21T03:40:15.081Z,8.31
2023-03-21T03:41:15.090Z,8.30
2023-03-21T03:42:27.382Z,8.32
2023-03-21T03:43:15.108Z,8.32
2023-03-21T03:44:15.118Z,8.32
2023-03-21T03:45:15.126Z,8.33
2023-03-21T03:46:15.149Z,8.34
2023-03-21T03:47:23.114Z,8.36
2023-03-21T03:48:15.166Z,8.37
2023-03-21T03:49:15.169Z,8.36
2023-03-21T03:50:15.186Z,8.39
2023-03-21T03:51:15.189Z,8.38
2023-03-21T03:52:15.202Z,8.38
2023-03-21T03:53:18.271Z,8.39
2023-03-21T03:54:15.231Z,8.39
2023-03-21T03:55:15.231Z,8.36
2023-03-21T03:56:15.250Z,8.37
2023-03-21T03:57:15.247Z,8.36
2023-03-21T03:58:22.077Z,8.38
2023-03-21T03:59:15.273Z,8.38
2023-03-21T04:00:15.282Z,8.39
2023-03-21T04:01:15.333Z,8.39
2023-03-21T04:02:15.340Z,8.40
2023-03-21T04:03:15.342Z,8.38
2023-03-21T04:04:15.426Z,8.40
2023-03-21T04:05:15.341Z,8.39
2023-03-21T04:06:15.346Z,8.36
2023-03-21T04:07:15.368Z,8.35
2023-03-21T04:08:15.428Z,8.35
2023-03-21T04:09:20.867Z,8.34
2023-03-21T04:10:15.381Z,8.34
2023-03-21T04:11:15.397Z,8.35
2023-03-21T04:12:15.412Z,8.34
2023-03-21T04:13:15.413Z,8.35
2023-03-21T04:14:15.424Z,8.35
2023-03-21T04:15:15.430Z,8.34
2023-03-21T04:16:15.504Z,8.37
2023-03-21T04:17:15.475Z,8.36
2023-03-21T04:18:15.458Z,8.36
2023-03-21T04:19:15.467Z,8.37
2023-03-21T04:20:23.761Z,8.39
2023-03-21T04:21:15.487Z,8.39
2023-03-21T04:22:15.499Z,8.40
2023-03-21T04:23:15.502Z,8.40
2023-03-21T04:24:15.517Z,8.40
2023-03-21T04:25:24.452Z,8.41
2023-03-21T04:26:15.538Z,8.41
2023-03-21T04:27:15.549Z,8.39
2023-03-21T04:28:15.560Z,8.40
2023-03-21T04:29:15.567Z,8.39
2023-03-21T04:30:15.577Z,8.40
2023-03-21T04:31:24.793Z,8.40
2023-03-21T04:32:15.603Z,8.41
2023-03-21T04:33:15.600Z,8.40
2023-03-21T04:34:15.610Z,8.41
2023-03-21T04:35:15.632Z,8.41
2023-03-21T04:36:15.653Z,8.43
2023-03-21T04:37:15.645Z,8.41
2023-03-21T04:38:15.650Z,8.40
2023-03-21T04:39:15.661Z,8.40
2023-03-21T04:40:15.675Z,8.40
2023-03-21T04:41:15.682Z,8.38
2023-03-21T04:42:15.689Z,8.38
2023-03-21T04:43:15.697Z,8.37
2023-03-21T04:44:15.707Z,8.38
2023-03-21T04:45:15.719Z,8.37
2023-03-21T04:46:15.834Z,8.38
2023-03-21T04:47:15.745Z,8.35
2023-03-21T04:48:15.795Z,8.36
2023-03-21T04:49:15.763Z,8.35
2023-03-21T04:50:15.767Z,8.37
2023-03-21T04:51:15.778Z,8.36
2023-03-21T04:52:15.793Z,8.36
2023-03-21T04:53:15.801Z,8.37
2023-03-21T04:54:16.064Z,8.36
2023-03-21T04:55:15.820Z,8.37
2023-03-21T04:56:15.825Z,8.38
2023-03-21T04:57:15.836Z,8.38
2023-03-21T04:58:15.847Z,8.38
2023-03-21T04:59:15.884Z,8.36
2023-03-21T05:00:15.867Z,8.37
2023-03-21T05:01:15.920Z,8.38
2023-03-21T05:02:15.891Z,8.37
2023-03-21T05:03:15.904Z,8.38
2023-03-21T05:04:15.987Z,8.39
2023-03-21T05:05:15.923Z,8.38
2023-03-21T05:06:15.933Z,8.39
2023-03-21T05:07:15.941Z,8.40
2023-03-21T05:08:15.950Z,8.37
2023-03-21T05:09:15.956Z,8.36
2023-03-21T05:10:15.965Z,8.38
2023-03-21T05:11:15.982Z,8.38
2023-03-21T05:12:15.979Z,8.40
2023-03-21T05:13:15.990Z,8.40
2023-03-21T05:14:16.002Z,8.40
2023-03-21T05:15:16.019Z,8.41
2023-03-21T05:16:16.102Z,8.41
2023-03-21T05:17:16.031Z,8.41
2023-03-21T05:18:16.040Z,8.43
2023-03-21T05:19:16.048Z,8.43
2023-03-21T05:20:16.096Z,8.42
2023-03-21T05:21:16.068Z,8.41
2023-03-21T05:22:16.087Z,8.40
2023-03-21T05:23:16.093Z,8.40
2023-03-21T05:24:16.104Z,8.41
2023-03-21T05:25:16.110Z,8.40
2023-03-21T05:26:16.120Z,8.40
2023-03-21T05:27:16.127Z,8.41
2023-03-21T05:28:16.139Z,8.41
2023-03-21T05:29:16.149Z,8.42
2023-03-21T05:30:16.170Z,8.41
2023-03-21T05:31:16.186Z,8.43
2023-03-21T05:32:16.184Z,8.44
2023-03-21T05:33:16.203Z,8.43
2023-03-21T05:34:16.213Z,8.45
2023-03-21T05:35:16.205Z,8.46
2023-03-21T05:36:16.246Z,8.45
2023-03-21T05:37:16.220Z,8.44
2023-03-21T05:38:16.228Z,8.45
2023-03-21T05:39:16.239Z,8.45
2023-03-21T05:40:16.246Z,8.46
2023-03-21T05:41:17.653Z,8.46
2023-03-21T05:42:16.274Z,8.46
2023-03-21T05:43:16.282Z,8.44
2023-03-21T05:44:16.292Z,8.47
2023-03-21T05:45:16.303Z,8.48
2023-03-21T05:46:16.332Z,8.49
2023-03-21T05:47:16.323Z,8.51
2023-03-21T05:48:16.345Z,8.50
2023-03-21T05:49:16.335Z,8.52
2023-03-21T05:50:16.348Z,8.51
2023-03-21T05:51:16.356Z,8.53
2023-03-21T05:52:16.370Z,8.53
2023-03-21T05:53:16.372Z,8.53
2023-03-21T05:54:16.388Z,8.54
2023-03-21T05:55:16.399Z,8.54
2023-03-21T05:56:16.409Z,8.55
2023-03-21T05:57:16.416Z,8.54
2023-03-21T05:58:16.425Z,8.54
2023-03-21T05:59:16.442Z,8.56
2023-03-21T06:00:16.456Z,8.56
2023-03-21T06:01:16.468Z,8.58
2023-03-21T06:02:16.520Z,8.59
2023-03-21T06:03:16.494Z,8.60
2023-03-21T06:04:16.563Z,8.60
2023-03-21T06:05:16.507Z,8.62
2023-03-21T06:06:16.525Z,8.66
2023-03-21T06:07:16.537Z,8.68
2023-03-21T06:08:16.570Z,8.67
2023-03-21T06:09:16.561Z,8.67
2023-03-21T06:10:16.570Z,8.70
2023-03-21T06:11:16.582Z,8.71
2023-03-21T06:12:16.603Z,8.73
2023-03-21T06:13:16.607Z,8.78
2023-03-21T06:14:16.612Z,8.78
2023-03-21T06:15:16.616Z,8.81
2023-03-21T06:16:16.693Z,8.81
2023-03-21T06:17:16.654Z,8.84
2023-03-21T06:18:16.644Z,8.87
2023-03-21T06:19:16.656Z,8.89
2023-03-21T06:20:16.670Z,8.92
2023-03-21T06:21:16.684Z,8.95
2023-03-21T06:22:16.688Z,8.98
2023-03-21T06:23:16.700Z,8.98
2023-03-21T06:24:16.712Z,8.99
2023-03-21T06:25:16.724Z,8.97
2023-03-21T06:26:16.729Z,9.00
2023-03-21T06:27:16.739Z,9.01
2023-03-21T06:28:16.742Z,8.99
2023-03-21T06:29:16.753Z,9.02
2023-03-21T06:30:16.777Z,9.02
2023-03-21T06:31:16.793Z,9.01
2023-03-21T06:32:16.783Z,9.02
2023-03-21T06:33:16.794Z,9.06
2023-03-21T06:34:16.814Z,9.08
2023-03-21T06:35:16.813Z,9.10
2023-03-21T06:36:16.825Z,9.12
2023-03-21T06:37:16.852Z,9.12
2023-03-21T06:38:16.848Z,9.14
2023-03-21T06:39:16.870Z,9.13
2023-03-21T06:40:16.878Z,9.11
2023-03-21T06:41:16.891Z,9.12
2023-03-21T06:42:16.893Z,9.12
2023-03-21T06:43:16.914Z,9.13
2023-03-21T06:44:16.917Z,9.12
2023-03-21T06:45:16.923Z,9.13
2023-03-21T06:46:16.964Z,9.16
2023-03-21T06:47:16.950Z,9.16
2023-03-21T06:48:17.006Z,9.17
2023-03-21T06:49:16.968Z,9.18
2023-03-21T06:50:16.980Z,9.14
2023-03-21T06:51:16.985Z,9.14
2023-03-21T06:52:16.990Z,9.13
2023-03-21T06:53:17.000Z,9.14
2023-03-21T06:54:17.011Z,9.16
2023-03-21T06:55:17.017Z,9.19
2023-03-21T06:56:17.035Z,9.18
2023-03-21T06:57:17.032Z,9.17
2023-03-21T06:58:17.046Z,9.16
2023-03-21T06:59:17.055Z,9.14
2023-03-21T07:00:17.066Z,9.14
2023-03-21T07:01:17.080Z,9.13
2023-03-21T07:02:17.125Z,9.13
2023-03-21T07:03:17.119Z,9.12
2023-03-21T07:04:17.123Z,9.11
2023-03-21T07:05:17.126Z,9.12
2023-03-21T07:06:17.132Z,9.13
2023-03-21T07:07:17.146Z,9.11
2023-03-21T07:08:17.159Z,9.14
2023-03-21T07:09:17.167Z,9.15
2023-03-21T07:10:17.187Z,9.18
2023-03-21T07:11:17.180Z,9.23
2023-03-21T07:12:17.192Z,9.23
2023-03-21T07:13:17.219Z,9.25
2023-03-21T07:14:17.216Z,9.28
2023-03-21T07:15:17.235Z,9.32
2023-03-21T07:16:17.345Z,9.33
2023-03-21T07:17:17.242Z,9.34
2023-03-21T07:18:17.260Z,9.33
2023-03-21T07:19:17.262Z,9.33
2023-03-21T07:20:17.272Z,9.34
2023-03-21T07:21:17.278Z,9.32
2023-03-21T07:22:17.300Z,9.32
2023-03-21T07:23:17.300Z,9.36
2023-03-21T07:24:17.308Z,9.34
2023-03-21T07:25:17.457Z,9.36
2023-03-21T07:26:17.329Z,9.39
2023-03-21T07:27:17.342Z,9.47
2023-03-21T07:28:17.368Z,9.46
2023-03-21T07:29:17.360Z,9.53
2023-03-21T07:30:17.371Z,9.54
2023-03-21T07:31:17.472Z,9.57
2023-03-21T07:32:17.390Z,9.59
2023-03-21T07:33:17.412Z,9.64
2023-03-21T07:34:17.411Z,9.66
2023-03-21T07:35:17.429Z,9.68
2023-03-21T07:36:17.463Z,9.69
2023-03-21T07:37:17.447Z,9.71
2023-03-21T07:38:17.462Z,9.74
2023-03-21T07:39:17.463Z,9.78
2023-03-21T07:40:17.485Z,9.80
2023-03-21T07:41:17.550Z,9.82
2023-03-21T07:42:17.512Z,9.85
2023-03-21T07:44:17.513Z,9.90
2023-03-21T07:45:18.290Z,9.88
2023-03-21T07:46:17.579Z,9.90
2023-03-21T07:47:17.536Z,9.90
2023-03-21T07:48:17.687Z,9.89
2023-03-21T07:49:17.577Z,9.89
2023-03-21T07:50:17.576Z,9.89
2023-03-21T07:51:17.576Z,9.92
2023-03-21T07:52:17.583Z,9.95
2023-03-21T07:53:17.590Z,9.97
2023-03-21T07:54:17.602Z,9.97
2023-03-21T07:55:17.616Z,9.97
2023-03-21T07:56:17.658Z,9.99
2023-03-21T07:57:17.654Z,9.94
2023-03-21T07:58:17.641Z,9.96
2023-03-21T07:59:17.661Z,9.96
2023-03-21T08:00:17.669Z,9.97
2023-03-21T08:01:17.682Z,9.96
2023-03-21T08:02:17.725Z,9.95
2023-03-21T08:03:17.756Z,9.98
2023-03-21T08:04:17.717Z,9.97
2023-03-21T08:05:17.718Z,9.95
2023-03-21T08:06:17.727Z,9.96
2023-03-21T08:07:17.742Z,9.96
2023-03-21T08:08:17.777Z,9.96
2023-03-21T08:09:17.762Z,9.97
2023-03-21T08:10:17.773Z,9.98
2023-03-21T08:11:17.770Z,9.94
2023-03-21T08:12:17.780Z,9.96
2023-03-21T08:13:17.801Z,9.94
2023-03-21T08:14:17.805Z,9.96
2023-03-21T08:15:17.823Z,9.94
2023-03-21T08:16:17.856Z,9.94
2023-03-21T08:17:17.834Z,9.96
2023-03-21T08:18:17.847Z,9.97
2023-03-21T08:19:17.846Z,9.96
2023-03-21T08:20:17.849Z,9.96
2023-03-21T08:21:17.866Z,9.97
2023-03-21T08:22:17.870Z,9.98
2023-03-21T08:23:17.886Z,9.98
2023-03-21T08:24:17.897Z,9.99
2023-03-21T08:25:17.929Z,10.01
2023-03-21T08:26:17.925Z,10.00
2023-03-21T08:27:17.923Z,10.01
2023-03-21T08:28:17.938Z,10.02
2023-03-21T08:29:17.950Z,10.01
2023-03-21T08:30:17.967Z,10.02
2023-03-21T08:31:18.021Z,10.02
2023-03-21T08:32:17.992Z,10.04
2023-03-21T08:33:18.016Z,10.04
2023-03-21T08:34:18.037Z,10.04
2023-03-21T08:35:18.034Z,10.05
2023-03-21T08:36:18.070Z,10.07
2023-03-21T08:37:18.048Z,10.08
2023-03-21T08:38:18.062Z,10.10
2023-03-21T08:39:18.145Z,10.12
2023-03-21T08:40:18.112Z,10.15
2023-03-21T08:41:18.098Z,10.21
2023-03-21T08:42:18.118Z,10.22
2023-03-21T08:43:18.120Z,10.27
2023-03-21T08:44:18.136Z,10.30
2023-03-21T08:45:18.167Z,10.30
2023-03-21T08:46:18.191Z,10.32
2023-03-21T08:47:18.173Z,10.34
2023-03-21T08:48:18.204Z,10.39
2023-03-21T08:49:18.198Z,10.38
2023-03-21T08:50:18.210Z,10.41
2023-03-21T08:51:18.217Z,10.44
2023-03-21T08:52:18.226Z,10.47
2023-03-21T08:53:18.262Z,10.49
2023-03-21T08:54:18.257Z,10.50
2023-03-21T08:55:18.270Z,10.49
2023-03-21T08:56:18.285Z,10.49
2023-03-21T08:57:18.300Z,10.47
2023-03-21T08:58:18.304Z,10.49
2023-03-21T08:59:18.321Z,10.50
2023-03-21T09:00:18.341Z,10.50
2023-03-21T09:01:18.379Z,10.50
2023-03-21T09:02:18.349Z,10.51
2023-03-21T09:03:18.368Z,10.53
2023-03-21T09:04:18.391Z,10.53
2023-03-21T09:05:18.379Z,10.53
2023-03-21T09:06:18.392Z,10.53
2023-03-21T09:07:18.405Z,10.55
2023-03-21T09:08:18.423Z,10.55
2023-03-21T09:09:18.419Z,10.56
2023-03-21T09:10:21.381Z,10.60
2023-03-21T09:11:18.439Z,10.59
2023-03-21T09:12:18.448Z,10.59
2023-03-21T09:13:18.452Z,10.59
2023-03-21T09:14:19.289Z,10.61
2023-03-21T09:15:18.510Z,10.60
2023-03-21T09:16:18.498Z,10.60
2023-03-21T09:17:21.104Z,10.65
2023-03-21T09:18:18.510Z,10.67
2023-03-21T09:19:18.522Z,10.68
2023-03-21T09:20:18.549Z,10.65
2023-03-21T09:21:18.653Z,10.67
2023-03-21T09:22:18.549Z,10.65
2023-03-21T09:23:18.556Z,10.68
2023-03-21T09:24:18.566Z,10.73
2023-03-21T09:25:18.579Z,10.76
2023-03-21T09:26:18.593Z,10.77
2023-03-21T09:27:18.596Z,10.78
2023-03-21T09:28:18.601Z,10.79
2023-03-21T09:29:18.620Z,10.78
2023-03-21T09:30:18.624Z,10.74
2023-03-21T09:31:18.697Z,10.72
2023-03-21T09:32:18.649Z,10.69
2023-03-21T09:33:18.661Z,10.66
2023-03-21T09:34:18.689Z,10.64
2023-03-21T09:35:18.739Z,10.64
2023-03-21T09:36:18.732Z,10.63
2023-03-21T09:37:18.712Z,10.64
2023-03-21T09:38:18.728Z,10.63
2023-03-21T09:39:18.725Z,10.63
2023-03-21T09:40:18.732Z,10.65
2023-03-21T09:41:18.748Z,10.66
2023-03-21T09:42:18.754Z,10.66
2023-03-21T09:43:18.767Z,10.68
2023-03-21T09:44:18.783Z,10.69
2023-03-21T09:45:18.786Z,10.69
2023-03-21T09:46:18.820Z,10.69
2023-03-21T09:47:18.810Z,10.70
2023-03-21T09:48:18.870Z,10.69
2023-03-21T09:49:18.838Z,10.71
2023-03-21T09:50:18.842Z,10.72
2023-03-21T09:51:18.848Z,10.70
2023-03-21T09:52:18.856Z,10.73
2023-03-21T09:53:18.869Z,10.72
2023-03-21T09:54:18.905Z,10.76
2023-03-21T09:55:18.888Z,10.81
2023-03-21T09:56:18.905Z,10.83
2023-03-21T09:57:18.919Z,10.87
2023-03-21T09:58:18.924Z,10.88
2023-03-21T09:59:18.933Z,10.94
2023-03-21T10:00:18.943Z,10.99
2023-03-21T10:01:19.018Z,11.01
2023-03-21T10:02:18.966Z,11.03
2023-03-21T10:03:18.978Z,11.04
2023-03-21T10:04:19.099Z,11.05
2023-03-21T10:05:19.004Z,11.02
2023-03-21T10:06:19.003Z,11.07
2023-03-21T10:07:19.012Z,11.08
2023-03-21T10:08:19.016Z,11.09
2023-03-21T10:09:19.042Z,11.13
2023-03-21T10:10:19.052Z,11.15
2023-03-21T10:11:19.068Z,11.19
2023-03-21T10:12:19.078Z,11.23
2023-03-21T10:13:19.092Z,11.30
2023-03-21T10:14:19.101Z,11.33
2023-03-21T10:15:19.117Z,11.41
2023-03-21T10:16:19.225Z,11.45
2023-03-21T10:17:19.128Z,11.50
2023-03-21T10:18:19.136Z,11.54
2023-03-21T10:19:19.140Z,11.58
2023-03-21T10:20:19.156Z,11.58
2023-03-21T10:21:37.540Z,11.53
2023-03-21T10:22:19.175Z,11.57
2023-03-21T10:23:19.180Z,11.56
2023-03-21T10:24:19.195Z,11.55
2023-03-21T10:25:19.200Z,11.56
2023-03-21T10:26:21.047Z,11.58
2023-03-21T10:27:19.228Z,11.59
2023-03-21T10:28:19.234Z,11.68
2023-03-21T10:29:19.433Z,11.75
2023-03-21T10:30:19.261Z,11.76
2023-03-21T10:31:19.296Z,11.78
2023-03-21T10:32:19.276Z,11.77
2023-03-21T10:33:19.313Z,11.80
2023-03-21T10:34:19.300Z,11.82
2023-03-21T10:35:19.315Z,11.84
2023-03-21T10:36:19.357Z,11.83
2023-03-21T10:37:19.340Z,11.84
2023-03-21T10:38:19.357Z,11.85
2023-03-21T10:39:19.359Z,11.88
2023-03-21T10:40:19.366Z,11.94
2023-03-21T10:41:19.381Z,11.93
2023-03-21T10:42:19.396Z,11.98
2023-03-21T10:43:19.403Z,12.05
2023-03-21T10:44:19.414Z,12.08
2023-03-21T10:45:19.432Z,12.06
2023-03-21T10:46:19.526Z,12.05
2023-03-21T10:47:19.638Z,12.08
2023-03-21T10:48:19.629Z,12.10
2023-03-21T10:49:19.472Z,12.15
2023-03-21T10:50:19.570Z,12.17
2023-03-21T10:51:19.512Z,12.12
2023-03-21T10:52:19.505Z,12.08
2023-03-21T10:53:19.520Z,12.05
2023-03-21T10:54:19.534Z,12.06
2023-03-21T10:55:19.551Z,12.05
2023-03-21T10:56:19.558Z,12.03
2023-03-21T10:57:19.570Z,12.02
2023-03-21T10:58:19.585Z,12.03
2023-03-21T10:59:20.528Z,12.03
2023-03-21T11:00:19.630Z,11.99
2023-03-21T11:01:19.664Z,12.00
2023-03-21T11:02:19.674Z,12.00
2023-03-21T11:03:19.639Z,11.95
2023-03-21T11:04:19.645Z,11.89
2023-03-21T11:05:20.817Z,11.87
2023-03-21T11:06:19.678Z,11.84
2023-03-21T11:07:19.690Z,11.79
2023-03-21T11:08:19.711Z,11.71
2023-03-21T11:09:19.715Z,11.70
2023-03-21T11:10:27.943Z,11.66
2023-03-21T11:11:20.315Z,11.64
2023-03-21T11:12:19.745Z,11.65
2023-03-21T11:13:19.760Z,11.65
2023-03-21T11:14:19.777Z,11.60
2023-03-21T11:15:19.776Z,11.60
2023-03-21T11:16:19.862Z,11.56
2023-03-21T11:17:19.797Z,11.59
2023-03-21T11:18:19.808Z,11.62
2023-03-21T11:19:19.824Z,11.62
2023-03-21T11:20:19.832Z,11.65
2023-03-21T11:21:19.837Z,11.73
2023-03-21T11:22:19.846Z,11.77
2023-03-21T11:23:20.840Z,11.79
2023-03-21T11:24:19.870Z,11.75
2023-03-21T11:25:19.881Z,11.75
2023-03-21T11:26:19.932Z,11.73
2023-03-21T11:27:19.912Z,11.74
2023-03-21T11:28:19.916Z,11.72
2023-03-21T11:29:19.934Z,11.75
2023-03-21T11:30:19.944Z,11.72
2023-03-21T11:31:19.985Z,11.70
2023-03-21T11:32:19.958Z,11.67
2023-03-21T11:33:19.982Z,11.72
2023-03-21T11:34:19.985Z,11.70
2023-03-21T11:35:20.001Z,11.72
2023-03-21T11:36:20.112Z,11.69
2023-03-21T11:37:20.031Z,11.68
2023-03-21T11:38:20.048Z,11.66
2023-03-21T11:39:20.046Z,11.65
2023-03-21T11:40:20.069Z,11.64
2023-03-21T11:41:20.064Z,11.69
2023-03-21T11:42:20.072Z,11.73
2023-03-21T11:43:20.085Z,11.73
2023-03-21T11:44:20.098Z,11.74
2023-03-21T11:45:20.120Z,11.72
2023-03-21T11:46:20.239Z,11.70
2023-03-21T11:47:20.129Z,11.70
2023-03-21T11:48:20.166Z,11.70
2023-03-21T11:49:20.152Z,11.68
2023-03-21T11:50:20.162Z,11.68
2023-03-21T11:51:20.176Z,11.67
2023-03-21T11:52:20.183Z,11.66
2023-03-21T11:53:20.189Z,11.69
2023-03-21T11:54:20.203Z,11.68
2023-03-21T11:55:20.232Z,11.74
2023-03-21T11:56:20.228Z,11.83
2023-03-21T11:57:20.244Z,11.87
2023-03-21T11:58:20.258Z,11.94
2023-03-21T11:59:20.266Z,12.05
2023-03-21T12:00:20.274Z,12.13
2023-03-21T12:01:20.280Z,12.25
2023-03-21T12:02:20.314Z,12.26
2023-03-21T12:03:20.325Z,12.25
2023-03-21T12:04:20.420Z,12.29
2023-03-21T12:05:20.321Z,12.38
2023-03-21T12:06:20.327Z,12.48
2023-03-21T12:07:20.364Z,12.55
2023-03-21T12:08:20.354Z,12.58
2023-03-21T12:09:20.374Z,12.56
2023-03-21T12:10:20.378Z,12.56
2023-03-21T12:11:20.399Z,12.52
2023-03-21T12:12:24.450Z,12.48
2023-03-21T12:13:20.409Z,12.46
2023-03-21T12:14:20.422Z,12.43
2023-03-21T12:15:20.437Z,12.39
2023-03-21T12:16:20.462Z,12.32
2023-03-21T12:17:20.447Z,12.24
2023-03-21T12:18:20.453Z,12.16
2023-03-21T12:19:20.468Z,12.09
2023-03-21T12:20:20.484Z,12.05
2023-03-21T12:21:20.488Z,12.01
2023-03-21T12:22:20.506Z,11.99
2023-03-21T12:23:20.552Z,11.94
2023-03-21T12:24:20.528Z,11.92
2023-03-21T12:25:20.539Z,11.90
2023-03-21T12:26:20.546Z,11.89
2023-03-21T12:27:20.565Z,11.87
2023-03-21T12:28:31.641Z,11.90
2023-03-21T12:29:20.578Z,11.98
2023-03-21T12:30:20.586Z,12.03
2023-03-21T12:31:20.611Z,12.13
2023-03-21T12:32:20.614Z,12.23
2023-03-21T12:33:20.628Z,12.27
2023-03-21T12:34:20.654Z,12.31
2023-03-21T12:35:20.662Z,12.35
2023-03-21T12:36:20.699Z,12.33
2023-03-21T12:37:20.687Z,12.37
2023-03-21T12:38:20.701Z,12.39
2023-03-21T12:39:20.716Z,12.36
2023-03-21T12:40:20.712Z,12.38
2023-03-21T12:41:20.719Z,12.40
2023-03-21T12:42:20.725Z,12.37
2023-03-21T12:43:20.744Z,12.34
2023-03-21T12:44:20.757Z,12.31
2023-03-21T12:45:20.759Z,12.28
2023-03-21T12:46:20.869Z,12.27
2023-03-21T12:47:20.790Z,12.26
2023-03-21T12:48:20.885Z,12.24
2023-03-21T12:49:20.821Z,12.21
2023-03-21T12:50:20.842Z,12.20
2023-03-21T12:51:20.855Z,12.12
2023-03-21T12:52:20.873Z,12.11
2023-03-21T12:53:20.886Z,12.10
2023-03-21T12:54:20.923Z,12.08
2023-03-21T12:55:20.930Z,12.05
2023-03-21T12:56:20.936Z,12.03
2023-03-21T12:57:20.951Z,12.00
2023-03-21T12:58:20.970Z,11.96
2023-03-21T12:59:20.984Z,11.94
2023-03-21T13:00:21.010Z,11.94
2023-03-21T13:01:21.049Z,11.93
2023-03-21T13:02:21.040Z,11.89
2023-03-21T13:03:22.978Z,11.85
2023-03-21T13:04:21.157Z,11.85
2023-03-21T13:05:21.082Z,11.80
2023-03-21T13:06:21.093Z,11.75
2023-03-21T13:07:21.108Z,11.64
2023-03-21T13:08:21.114Z,11.60
2023-03-21T13:09:25.839Z,11.55
2023-03-21T13:10:21.161Z,11.52
2023-03-21T13:11:21.170Z,11.49
2023-03-21T13:12:21.172Z,11.49
2023-03-21T13:13:21.212Z,11.46
2023-03-21T13:14:21.202Z,11.43
2023-03-21T13:15:24.224Z,11.42
2023-03-21T13:16:21.251Z,11.43
2023-03-21T13:17:21.244Z,11.47
2023-03-21T13:18:21.250Z,11.50
2023-03-21T13:19:21.263Z,11.52
2023-03-21T13:20:21.269Z,11.55
2023-03-21T13:21:21.287Z,11.56
2023-03-21T13:22:21.298Z,11.57
2023-03-21T13:23:21.302Z,11.58
2023-03-21T13:24:21.309Z,11.57
2023-03-21T13:25:21.330Z,11.58
2023-03-21T13:26:21.338Z,11.58
2023-03-21T13:27:21.342Z,11.63
2023-03-21T13:28:21.359Z,11.65